ENMH

Details ICAO ENMH
Name Mehamn
Region Norway
Timezone Europe/Oslo (UTC+2.0)
Plans Departing 11
Arriving 17
Stats Elevation 39 ft / 12 m (AMSL)
Location 71.029518° 27.826632°
Runways 1
Magnetic Variation 14.510° E
Sunrise Unknown / Unknown
Sunset Unknown / Unknown
Advertisement - Login to hide

Runways

ID Width Length Bearing (true) Bearing (mag) Surface Threshold Offset Overrun Length
18 98 ft / 30 m 2,889 ft / 880 m 183.60° 169.09° Asphalt 0 ft / 0 m 0 ft / 0 m
36 98 ft / 30 m 2,889 ft / 880 m 3.60° 349.09° Asphalt 0 ft / 0 m 0 ft / 0 m

Map

Weather


0- 5 10 15 20 25 30 35+ Temperature / ° C

Clouds and Precipitation
Forecast for 2018-05-20 18:00 UTC. Updated an hour ago

Ground ~20,000 ft ~40,000 ft Winds

METAR

ENMH 201650Z 19019KT 9999 RA BKN045 06/03 Q1006

TAF

Not found
Warning: Do not use this data for real-world aviation or navigation. No guarantee of current accuracy is given.